sensor_id;sensor_type;location;lat;lon;timestamp;P1;durP1;ratioP1;P2;durP2;ratioP2
13269;SDS011;6703;51.994;7.570;2023-02-15T00:01:46;53.08;;;18.25;;
13269;SDS011;6703;51.994;7.570;2023-02-15T00:04:14;56.53;;;18.73;;
13269;SDS011;6703;51.994;7.570;2023-02-15T00:06:45;55.42;;;18.88;;
13269;SDS011;6703;51.994;7.570;2023-02-15T00:09:13;57.92;;;19.38;;
13269;SDS011;6703;51.994;7.570;2023-02-15T00:11:41;58.22;;;19.52;;
13269;SDS011;6703;51.994;7.570;2023-02-15T00:14:16;53.08;;;19.38;;
13269;SDS011;6703;51.994;7.570;2023-02-15T00:16:46;58.73;;;20.70;;
13269;SDS011;6703;51.994;7.570;2023-02-15T00:19:15;58.05;;;19.85;;
13269;SDS011;6703;51.994;7.570;2023-02-15T00:21:45;61.28;;;20.92;;
13269;SDS011;6703;51.994;7.570;2023-02-15T00:24:14;56.10;;;19.60;;
13269;SDS011;6703;51.994;7.570;2023-02-15T00:26:44;60.17;;;19.92;;
13269;SDS011;6703;51.994;7.570;2023-02-15T00:29:12;55.23;;;19.40;;
13269;SDS011;6703;51.994;7.570;2023-02-15T00:31:42;61.17;;;20.42;;
13269;SDS011;6703;51.994;7.570;2023-02-15T00:34:10;61.03;;;19.85;;
13269;SDS011;6703;51.994;7.570;2023-02-15T00:36:39;59.90;;;20.02;;
13269;SDS011;6703;51.994;7.570;2023-02-15T00:39:08;55.58;;;20.35;;
13269;SDS011;6703;51.994;7.570;2023-02-15T00:41:36;59.83;;;21.20;;
13269;SDS011;6703;51.994;7.570;2023-02-15T00:44:04;61.78;;;21.08;;
13269;SDS011;6703;51.994;7.570;2023-02-15T00:46:32;64.78;;;20.58;;
13269;SDS011;6703;51.994;7.570;2023-02-15T00:49:00;66.88;;;21.02;;
13269;SDS011;6703;51.994;7.570;2023-02-15T00:51:29;59.33;;;20.08;;
13269;SDS011;6703;51.994;7.570;2023-02-15T00:53:57;54.05;;;20.58;;
13269;SDS011;6703;51.994;7.570;2023-02-15T00:56:26;62.80;;;20.60;;
13269;SDS011;6703;51.994;7.570;2023-02-15T00:58:55;57.28;;;20.00;;
13269;SDS011;6703;51.994;7.570;2023-02-15T01:01:23;59.88;;;20.92;;
13269;SDS011;6703;51.994;7.570;2023-02-15T01:03:52;62.42;;;21.42;;
13269;SDS011;6703;51.994;7.570;2023-02-15T01:06:20;66.53;;;21.70;;
13269;SDS011;6703;51.994;7.570;2023-02-15T01:08:48;52.67;;;21.00;;
13269;SDS011;6703;51.994;7.570;2023-02-15T01:11:16;58.93;;;20.93;;
13269;SDS011;6703;51.994;7.570;2023-02-15T01:13:50;55.00;;;20.20;;
13269;SDS011;6703;51.994;7.570;2023-02-15T01:16:19;63.35;;;21.17;;
13269;SDS011;6703;51.994;7.570;2023-02-15T01:18:47;59.45;;;21.13;;
13269;SDS011;6703;51.994;7.570;2023-02-15T01:21:16;62.72;;;21.30;;
13269;SDS011;6703;51.994;7.570;2023-02-15T01:23:45;58.38;;;20.63;;
13269;SDS011;6703;51.994;7.570;2023-02-15T01:26:13;60.88;;;21.30;;
13269;SDS011;6703;51.994;7.570;2023-02-15T01:28:41;54.00;;;19.50;;
13269;SDS011;6703;51.994;7.570;2023-02-15T01:31:11;64.40;;;21.00;;
13269;SDS011;6703;51.994;7.570;2023-02-15T01:33:40;55.30;;;20.25;;
13269;SDS011;6703;51.994;7.570;2023-02-15T01:36:09;56.63;;;20.08;;
13269;SDS011;6703;51.994;7.570;2023-02-15T01:38:37;56.80;;;20.65;;
13269;SDS011;6703;51.994;7.570;2023-02-15T01:41:06;68.97;;;22.38;;
13269;SDS011;6703;51.994;7.570;2023-02-15T01:43:50;66.13;;;21.33;;
13269;SDS011;6703;51.994;7.570;2023-02-15T01:46:22;64.75;;;22.25;;
13269;SDS011;6703;51.994;7.570;2023-02-15T01:48:54;58.80;;;20.75;;
13269;SDS011;6703;51.994;7.570;2023-02-15T01:51:24;62.78;;;22.40;;
13269;SDS011;6703;51.994;7.570;2023-02-15T01:53:55;63.38;;;21.23;;
13269;SDS011;6703;51.994;7.570;2023-02-15T01:56:27;64.97;;;22.17;;
13269;SDS011;6703;51.994;7.570;2023-02-15T01:58:57;64.18;;;22.42;;
13269;SDS011;6703;51.994;7.570;2023-02-15T02:01:28;65.85;;;22.17;;
13269;SDS011;6703;51.994;7.570;2023-02-15T02:03:56;65.05;;;22.02;;
13269;SDS011;6703;51.994;7.570;2023-02-15T02:06:27;67.07;;;22.20;;
13269;SDS011;6703;51.994;7.570;2023-02-15T02:08:55;70.15;;;22.30;;
13269;SDS011;6703;51.994;7.570;2023-02-15T02:11:23;73.75;;;22.42;;
13269;SDS011;6703;51.994;7.570;2023-02-15T02:13:52;62.15;;;21.10;;
13269;SDS011;6703;51.994;7.570;2023-02-15T02:16:21;66.22;;;22.42;;
13269;SDS011;6703;51.994;7.570;2023-02-15T02:18:57;72.60;;;22.57;;
13269;SDS011;6703;51.994;7.570;2023-02-15T02:21:36;64.53;;;20.65;;
13269;SDS011;6703;51.994;7.570;2023-02-15T02:24:23;65.22;;;20.63;;
13269;SDS011;6703;51.994;7.570;2023-02-15T02:27:12;66.60;;;21.35;;
13269;SDS011;6703;51.994;7.570;2023-02-15T02:29:57;61.83;;;21.52;;
13269;SDS011;6703;51.994;7.570;2023-02-15T02:35:22;65.88;;;21.73;;
13269;SDS011;6703;51.994;7.570;2023-02-15T02:37:55;70.80;;;20.73;;
13269;SDS011;6703;51.994;7.570;2023-02-15T02:40:32;59.28;;;19.92;;
13269;SDS011;6703;51.994;7.570;2023-02-15T02:43:04;73.55;;;20.88;;
13269;SDS011;6703;51.994;7.570;2023-02-15T02:45:39;69.15;;;22.27;;
13269;SDS011;6703;51.994;7.570;2023-02-15T02:48:13;72.45;;;21.58;;
13269;SDS011;6703;51.994;7.570;2023-02-15T02:50:42;73.63;;;21.77;;
13269;SDS011;6703;51.994;7.570;2023-02-15T02:53:10;171.98;;;25.52;;
13269;SDS011;6703;51.994;7.570;2023-02-15T02:55:39;74.15;;;22.15;;
13269;SDS011;6703;51.994;7.570;2023-02-15T02:58:09;79.45;;;21.92;;
13269;SDS011;6703;51.994;7.570;2023-02-15T03:00:39;67.00;;;20.35;;
13269;SDS011;6703;51.994;7.570;2023-02-15T03:03:11;81.75;;;22.17;;
13269;SDS011;6703;51.994;7.570;2023-02-15T03:05:43;73.60;;;21.25;;
13269;SDS011;6703;51.994;7.570;2023-02-15T03:08:13;69.05;;;20.90;;
13269;SDS011;6703;51.994;7.570;2023-02-15T03:10:47;81.72;;;22.00;;
13269;SDS011;6703;51.994;7.570;2023-02-15T03:13:16;61.40;;;19.67;;
13269;SDS011;6703;51.994;7.570;2023-02-15T03:15:44;179.98;;;24.67;;
13269;SDS011;6703;51.994;7.570;2023-02-15T03:18:31;637.72;;;32.35;;
13269;SDS011;6703;51.994;7.570;2023-02-15T03:21:01;950.45;;;45.88;;
13269;SDS011;6703;51.994;7.570;2023-02-15T03:23:30;336.00;;;29.10;;
13269;SDS011;6703;51.994;7.570;2023-02-15T03:26:00;271.60;;;23.20;;
13269;SDS011;6703;51.994;7.570;2023-02-15T03:28:30;94.77;;;21.60;;
13269;SDS011;6703;51.994;7.570;2023-02-15T03:31:02;734.88;;;38.35;;
13269;SDS011;6703;51.994;7.570;2023-02-15T03:33:34;703.20;;;40.10;;
13269;SDS011;6703;51.994;7.570;2023-02-15T03:36:04;96.03;;;24.33;;
13269;SDS011;6703;51.994;7.570;2023-02-15T03:38:36;374.50;;;26.40;;
13269;SDS011;6703;51.994;7.570;2023-02-15T03:41:08;86.03;;;22.17;;
13269;SDS011;6703;51.994;7.570;2023-02-15T03:43:38;64.88;;;21.98;;
13269;SDS011;6703;51.994;7.570;2023-02-15T03:46:11;62.08;;;19.45;;
13269;SDS011;6703;51.994;7.570;2023-02-15T03:48:45;67.40;;;19.90;;
13269;SDS011;6703;51.994;7.570;2023-02-15T03:51:16;143.27;;;24.37;;
13269;SDS011;6703;51.994;7.570;2023-02-15T03:54:05;143.73;;;24.33;;
13269;SDS011;6703;51.994;7.570;2023-02-15T03:56:35;130.65;;;23.58;;
13269;SDS011;6703;51.994;7.570;2023-02-15T03:59:03;121.03;;;23.57;;
13269;SDS011;6703;51.994;7.570;2023-02-15T04:01:53;69.88;;;20.70;;
13269;SDS011;6703;51.994;7.570;2023-02-15T04:04:32;67.72;;;20.55;;
13269;SDS011;6703;51.994;7.570;2023-02-15T04:07:01;84.03;;;22.88;;
13269;SDS011;6703;51.994;7.570;2023-02-15T04:09:30;73.07;;;22.75;;
13269;SDS011;6703;51.994;7.570;2023-02-15T04:12:16;66.18;;;21.15;;
13269;SDS011;6703;51.994;7.570;2023-02-15T04:14:44;64.60;;;21.23;;
13269;SDS011;6703;51.994;7.570;2023-02-15T04:17:29;65.70;;;21.48;;
13269;SDS011;6703;51.994;7.570;2023-02-15T04:19:58;67.13;;;21.17;;
13269;SDS011;6703;51.994;7.570;2023-02-15T04:22:44;76.85;;;22.10;;
13269;SDS011;6703;51.994;7.570;2023-02-15T04:25:29;85.63;;;23.15;;
13269;SDS011;6703;51.994;7.570;2023-02-15T04:27:57;70.45;;;21.10;;
13269;SDS011;6703;51.994;7.570;2023-02-15T04:30:25;124.43;;;20.02;;
13269;SDS011;6703;51.994;7.570;2023-02-15T04:32:53;823.95;;;44.10;;
13269;SDS011;6703;51.994;7.570;2023-02-15T04:35:24;596.15;;;36.10;;
13269;SDS011;6703;51.994;7.570;2023-02-15T04:37:52;234.85;;;25.88;;
13269;SDS011;6703;51.994;7.570;2023-02-15T04:40:22;78.88;;;21.88;;
13269;SDS011;6703;51.994;7.570;2023-02-15T04:42:49;59.80;;;20.75;;
13269;SDS011;6703;51.994;7.570;2023-02-15T04:45:17;54.95;;;20.08;;
13269;SDS011;6703;51.994;7.570;2023-02-15T04:47:45;69.03;;;20.88;;
13269;SDS011;6703;51.994;7.570;2023-02-15T04:50:13;63.53;;;21.33;;
13269;SDS011;6703;51.994;7.570;2023-02-15T04:52:42;53.75;;;19.63;;
13269;SDS011;6703;51.994;7.570;2023-02-15T04:55:10;64.78;;;20.45;;
13269;SDS011;6703;51.994;7.570;2023-02-15T04:57:38;53.22;;;19.15;;
13269;SDS011;6703;51.994;7.570;2023-02-15T05:00:06;66.17;;;21.03;;
13269;SDS011;6703;51.994;7.570;2023-02-15T05:02:35;61.83;;;20.00;;
13269;SDS011;6703;51.994;7.570;2023-02-15T05:05:04;69.57;;;20.58;;
13269;SDS011;6703;51.994;7.570;2023-02-15T05:07:32;64.35;;;20.85;;
13269;SDS011;6703;51.994;7.570;2023-02-15T05:10:01;67.67;;;20.53;;
13269;SDS011;6703;51.994;7.570;2023-02-15T05:12:29;831.00;;;42.95;;
13269;SDS011;6703;51.994;7.570;2023-02-15T05:14:57;699.37;;;39.23;;
13269;SDS011;6703;51.994;7.570;2023-02-15T05:17:25;84.55;;;22.90;;
13269;SDS011;6703;51.994;7.570;2023-02-15T05:19:52;67.95;;;21.63;;
13269;SDS011;6703;51.994;7.570;2023-02-15T05:22:20;294.45;;;28.70;;
13269;SDS011;6703;51.994;7.570;2023-02-15T05:24:48;300.40;;;28.10;;
13269;SDS011;6703;51.994;7.570;2023-02-15T05:27:35;72.22;;;22.30;;
13269;SDS011;6703;51.994;7.570;2023-02-15T05:30:20;94.75;;;22.15;;
13269;SDS011;6703;51.994;7.570;2023-02-15T05:32:48;1360.97;;;65.00;;
13269;SDS011;6703;51.994;7.570;2023-02-15T05:35:16;1297.60;;;60.23;;
13269;SDS011;6703;51.994;7.570;2023-02-15T05:37:44;172.57;;;25.47;;
13269;SDS011;6703;51.994;7.570;2023-02-15T05:40:11;181.43;;;24.90;;
13269;SDS011;6703;51.994;7.570;2023-02-15T05:42:41;72.28;;;20.25;;
13269;SDS011;6703;51.994;7.570;2023-02-15T05:45:08;68.72;;;20.58;;
13269;SDS011;6703;51.994;7.570;2023-02-15T05:47:36;65.32;;;20.92;;
13269;SDS011;6703;51.994;7.570;2023-02-15T05:50:05;69.10;;;20.90;;
13269;SDS011;6703;51.994;7.570;2023-02-15T05:52:33;76.68;;;22.08;;
13269;SDS011;6703;51.994;7.570;2023-02-15T05:55:01;76.80;;;20.70;;
13269;SDS011;6703;51.994;7.570;2023-02-15T05:57:30;70.88;;;20.80;;
13269;SDS011;6703;51.994;7.570;2023-02-15T05:59:59;62.38;;;20.08;;
13269;SDS011;6703;51.994;7.570;2023-02-15T06:02:27;110.38;;;21.33;;
13269;SDS011;6703;51.994;7.570;2023-02-15T06:04:55;64.13;;;19.70;;
13269;SDS011;6703;51.994;7.570;2023-02-15T06:07:22;63.05;;;20.10;;
13269;SDS011;6703;51.994;7.570;2023-02-15T06:09:50;67.97;;;21.08;;
13269;SDS011;6703;51.994;7.570;2023-02-15T06:12:18;94.43;;;22.40;;
13269;SDS011;6703;51.994;7.570;2023-02-15T06:14:46;70.10;;;21.35;;
13269;SDS011;6703;51.994;7.570;2023-02-15T06:17:15;61.42;;;20.95;;
13269;SDS011;6703;51.994;7.570;2023-02-15T06:19:43;63.60;;;19.98;;
13269;SDS011;6703;51.994;7.570;2023-02-15T06:22:11;71.30;;;20.67;;
13269;SDS011;6703;51.994;7.570;2023-02-15T06:24:40;400.40;;;30.75;;
13269;SDS011;6703;51.994;7.570;2023-02-15T06:27:09;915.00;;;49.33;;
13269;SDS011;6703;51.994;7.570;2023-02-15T06:29:36;71.10;;;22.37;;
13269;SDS011;6703;51.994;7.570;2023-02-15T06:32:04;71.68;;;20.17;;
13269;SDS011;6703;51.994;7.570;2023-02-15T06:34:34;64.40;;;20.23;;
13269;SDS011;6703;51.994;7.570;2023-02-15T06:37:02;67.40;;;20.08;;
13269;SDS011;6703;51.994;7.570;2023-02-15T06:39:29;67.25;;;19.83;;
13269;SDS011;6703;51.994;7.570;2023-02-15T06:41:57;68.90;;;20.13;;
13269;SDS011;6703;51.994;7.570;2023-02-15T06:44:25;67.97;;;20.50;;
13269;SDS011;6703;51.994;7.570;2023-02-15T06:46:53;65.63;;;19.33;;
13269;SDS011;6703;51.994;7.570;2023-02-15T06:49:20;60.58;;;19.40;;
13269;SDS011;6703;51.994;7.570;2023-02-15T06:51:49;68.35;;;21.05;;
13269;SDS011;6703;51.994;7.570;2023-02-15T06:54:17;69.18;;;20.17;;
13269;SDS011;6703;51.994;7.570;2023-02-15T06:56:45;69.60;;;20.30;;
13269;SDS011;6703;51.994;7.570;2023-02-15T06:59:13;68.00;;;19.70;;
13269;SDS011;6703;51.994;7.570;2023-02-15T07:01:41;62.40;;;18.37;;
13269;SDS011;6703;51.994;7.570;2023-02-15T07:04:09;62.22;;;20.02;;
13269;SDS011;6703;51.994;7.570;2023-02-15T07:06:36;65.78;;;19.88;;
13269;SDS011;6703;51.994;7.570;2023-02-15T07:09:06;68.05;;;20.20;;
13269;SDS011;6703;51.994;7.570;2023-02-15T07:11:33;55.45;;;18.75;;
13269;SDS011;6703;51.994;7.570;2023-02-15T07:14:20;64.88;;;19.60;;
13269;SDS011;6703;51.994;7.570;2023-02-15T07:16:48;67.32;;;20.40;;
13269;SDS011;6703;51.994;7.570;2023-02-15T07:19:16;68.03;;;21.83;;
13269;SDS011;6703;51.994;7.570;2023-02-15T07:21:44;63.85;;;21.58;;
13269;SDS011;6703;51.994;7.570;2023-02-15T07:24:14;68.10;;;20.63;;
13269;SDS011;6703;51.994;7.570;2023-02-15T07:26:41;74.90;;;19.98;;
13269;SDS011;6703;51.994;7.570;2023-02-15T07:29:09;74.38;;;20.73;;
13269;SDS011;6703;51.994;7.570;2023-02-15T07:31:37;65.10;;;22.17;;
13269;SDS011;6703;51.994;7.570;2023-02-15T07:34:05;68.55;;;21.33;;
13269;SDS011;6703;51.994;7.570;2023-02-15T07:36:33;66.07;;;21.08;;
13269;SDS011;6703;51.994;7.570;2023-02-15T07:39:01;65.28;;;20.30;;
13269;SDS011;6703;51.994;7.570;2023-02-15T07:41:30;71.10;;;20.58;;
13269;SDS011;6703;51.994;7.570;2023-02-15T07:43:58;65.95;;;21.17;;
13269;SDS011;6703;51.994;7.570;2023-02-15T07:46:26;68.60;;;21.35;;
13269;SDS011;6703;51.994;7.570;2023-02-15T07:48:54;64.20;;;20.48;;
13269;SDS011;6703;51.994;7.570;2023-02-15T07:51:22;78.38;;;20.95;;
13269;SDS011;6703;51.994;7.570;2023-02-15T07:53:49;72.57;;;20.55;;
13269;SDS011;6703;51.994;7.570;2023-02-15T07:56:18;64.05;;;20.75;;
13269;SDS011;6703;51.994;7.570;2023-02-15T07:58:47;71.03;;;21.77;;
13269;SDS011;6703;51.994;7.570;2023-02-15T08:01:18;70.65;;;20.63;;
13269;SDS011;6703;51.994;7.570;2023-02-15T08:03:47;77.43;;;20.23;;
13269;SDS011;6703;51.994;7.570;2023-02-15T08:06:15;76.03;;;21.40;;
13269;SDS011;6703;51.994;7.570;2023-02-15T08:08:43;66.18;;;20.25;;
13269;SDS011;6703;51.994;7.570;2023-02-15T08:11:15;72.07;;;20.37;;
13269;SDS011;6703;51.994;7.570;2023-02-15T08:13:57;73.00;;;22.67;;
13269;SDS011;6703;51.994;7.570;2023-02-15T08:16:29;76.97;;;22.00;;
13269;SDS011;6703;51.994;7.570;2023-02-15T08:19:00;72.05;;;20.25;;
13269;SDS011;6703;51.994;7.570;2023-02-15T08:21:29;72.20;;;20.53;;
13269;SDS011;6703;51.994;7.570;2023-02-15T08:23:57;79.73;;;22.20;;
13269;SDS011;6703;51.994;7.570;2023-02-15T08:26:25;78.63;;;22.08;;
13269;SDS011;6703;51.994;7.570;2023-02-15T08:28:54;78.72;;;22.58;;
13269;SDS011;6703;51.994;7.570;2023-02-15T08:31:23;85.82;;;22.30;;
13269;SDS011;6703;51.994;7.570;2023-02-15T08:33:52;81.93;;;21.90;;
13269;SDS011;6703;51.994;7.570;2023-02-15T08:36:21;85.55;;;23.05;;
13269;SDS011;6703;51.994;7.570;2023-02-15T08:38:50;84.25;;;22.95;;
13269;SDS011;6703;51.994;7.570;2023-02-15T08:41:19;95.10;;;23.88;;
13269;SDS011;6703;51.994;7.570;2023-02-15T08:43:48;89.65;;;21.77;;
13269;SDS011;6703;51.994;7.570;2023-02-15T08:46:18;89.07;;;22.65;;
13269;SDS011;6703;51.994;7.570;2023-02-15T08:48:47;103.20;;;23.20;;
13269;SDS011;6703;51.994;7.570;2023-02-15T08:51:16;83.03;;;23.33;;
13269;SDS011;6703;51.994;7.570;2023-02-15T08:53:46;87.50;;;23.63;;
13269;SDS011;6703;51.994;7.570;2023-02-15T08:56:15;84.15;;;24.48;;
13269;SDS011;6703;51.994;7.570;2023-02-15T08:58:43;89.10;;;23.90;;
13269;SDS011;6703;51.994;7.570;2023-02-15T09:01:12;94.38;;;23.83;;
13269;SDS011;6703;51.994;7.570;2023-02-15T09:03:44;102.78;;;24.52;;
13269;SDS011;6703;51.994;7.570;2023-02-15T09:06:13;99.50;;;25.52;;
13269;SDS011;6703;51.994;7.570;2023-02-15T09:08:42;104.22;;;25.98;;
13269;SDS011;6703;51.994;7.570;2023-02-15T09:11:10;106.90;;;25.98;;
13269;SDS011;6703;51.994;7.570;2023-02-15T09:13:39;126.70;;;28.33;;
13269;SDS011;6703;51.994;7.570;2023-02-15T09:16:08;129.80;;;29.73;;
13269;SDS011;6703;51.994;7.570;2023-02-15T09:18:37;129.33;;;29.53;;
13269;SDS011;6703;51.994;7.570;2023-02-15T09:21:06;117.43;;;30.02;;
13269;SDS011;6703;51.994;7.570;2023-02-15T09:23:36;126.55;;;31.05;;
13269;SDS011;6703;51.994;7.570;2023-02-15T09:26:05;127.93;;;30.63;;
13269;SDS011;6703;51.994;7.570;2023-02-15T09:28:33;122.22;;;30.33;;
13269;SDS011;6703;51.994;7.570;2023-02-15T09:31:06;127.85;;;31.33;;
13269;SDS011;6703;51.994;7.570;2023-02-15T09:33:35;139.23;;;32.45;;
13269;SDS011;6703;51.994;7.570;2023-02-15T09:36:03;125.10;;;32.75;;
13269;SDS011;6703;51.994;7.570;2023-02-15T09:38:31;132.43;;;33.03;;
13269;SDS011;6703;51.994;7.570;2023-02-15T09:41:13;110.40;;;30.17;;
13269;SDS011;6703;51.994;7.570;2023-02-15T09:43:50;106.28;;;28.50;;
13269;SDS011;6703;51.994;7.570;2023-02-15T09:46:27;106.78;;;30.27;;
13269;SDS011;6703;51.994;7.570;2023-02-15T09:49:03;104.07;;;30.33;;
13269;SDS011;6703;51.994;7.570;2023-02-15T09:51:42;102.70;;;29.15;;
13269;SDS011;6703;51.994;7.570;2023-02-15T09:54:33;99.47;;;30.38;;
13269;SDS011;6703;51.994;7.570;2023-02-15T09:57:10;91.40;;;28.27;;
13269;SDS011;6703;51.994;7.570;2023-02-15T09:59:44;85.72;;;29.40;;
13269;SDS011;6703;51.994;7.570;2023-02-15T10:02:24;84.72;;;28.90;;
13269;SDS011;6703;51.994;7.570;2023-02-15T10:05:05;75.30;;;28.05;;
13269;SDS011;6703;51.994;7.570;2023-02-15T10:07:43;71.97;;;26.50;;
13269;SDS011;6703;51.994;7.570;2023-02-15T10:10:23;73.43;;;26.83;;
13269;SDS011;6703;51.994;7.570;2023-02-15T10:13:00;61.50;;;25.40;;
13269;SDS011;6703;51.994;7.570;2023-02-15T10:15:41;60.00;;;24.38;;
13269;SDS011;6703;51.994;7.570;2023-02-15T10:18:25;53.60;;;23.50;;
13269;SDS011;6703;51.994;7.570;2023-02-15T10:21:03;60.90;;;23.73;;
13269;SDS011;6703;51.994;7.570;2023-02-15T10:23:39;52.78;;;22.17;;
13269;SDS011;6703;51.994;7.570;2023-02-15T10:26:16;46.25;;;20.65;;
13269;SDS011;6703;51.994;7.570;2023-02-15T10:28:48;53.00;;;22.27;;
13269;SDS011;6703;51.994;7.570;2023-02-15T10:31:22;50.70;;;20.15;;
13269;SDS011;6703;51.994;7.570;2023-02-15T10:33:55;53.33;;;21.92;;
13269;SDS011;6703;51.994;7.570;2023-02-15T10:36:34;52.13;;;21.00;;
13269;SDS011;6703;51.994;7.570;2023-02-15T10:39:12;51.13;;;20.45;;
13269;SDS011;6703;51.994;7.570;2023-02-15T10:41:50;53.33;;;20.90;;
13269;SDS011;6703;51.994;7.570;2023-02-15T10:44:28;51.05;;;21.27;;
13269;SDS011;6703;51.994;7.570;2023-02-15T10:47:13;53.40;;;20.27;;
13269;SDS011;6703;51.994;7.570;2023-02-15T10:49:57;52.73;;;19.97;;
13269;SDS011;6703;51.994;7.570;2023-02-15T10:52:36;52.50;;;19.98;;
13269;SDS011;6703;51.994;7.570;2023-02-15T10:55:12;46.67;;;20.23;;
13269;SDS011;6703;51.994;7.570;2023-02-15T10:57:46;46.65;;;19.45;;
13269;SDS011;6703;51.994;7.570;2023-02-15T11:00:21;44.67;;;19.13;;
13269;SDS011;6703;51.994;7.570;2023-02-15T11:02:56;48.83;;;19.08;;
13269;SDS011;6703;51.994;7.570;2023-02-15T11:05:36;47.20;;;18.45;;
13269;SDS011;6703;51.994;7.570;2023-02-15T11:08:10;48.40;;;18.67;;
13269;SDS011;6703;51.994;7.570;2023-02-15T11:10:39;44.47;;;18.47;;
13269;SDS011;6703;51.994;7.570;2023-02-15T11:13:11;47.13;;;19.10;;
13269;SDS011;6703;51.994;7.570;2023-02-15T11:15:44;45.67;;;19.48;;
13269;SDS011;6703;51.994;7.570;2023-02-15T11:18:15;46.88;;;19.70;;
13269;SDS011;6703;51.994;7.570;2023-02-15T11:20:49;47.53;;;19.02;;
13269;SDS011;6703;51.994;7.570;2023-02-15T11:23:20;46.75;;;18.70;;
13269;SDS011;6703;51.994;7.570;2023-02-15T11:25:52;48.58;;;20.33;;
13269;SDS011;6703;51.994;7.570;2023-02-15T11:28:24;43.63;;;18.60;;
13269;SDS011;6703;51.994;7.570;2023-02-15T11:30:58;48.83;;;18.97;;
13269;SDS011;6703;51.994;7.570;2023-02-15T11:33:31;49.35;;;19.10;;
13269;SDS011;6703;51.994;7.570;2023-02-15T11:36:03;45.47;;;18.88;;
13269;SDS011;6703;51.994;7.570;2023-02-15T11:38:34;44.08;;;18.58;;
13269;SDS011;6703;51.994;7.570;2023-02-15T11:41:03;42.50;;;18.73;;
13269;SDS011;6703;51.994;7.570;2023-02-15T11:43:34;52.10;;;19.15;;
13269;SDS011;6703;51.994;7.570;2023-02-15T11:46:05;43.05;;;18.40;;
13269;SDS011;6703;51.994;7.570;2023-02-15T11:48:37;48.10;;;19.05;;
13269;SDS011;6703;51.994;7.570;2023-02-15T11:51:05;44.10;;;18.38;;
13269;SDS011;6703;51.994;7.570;2023-02-15T11:53:36;44.60;;;18.88;;
13269;SDS011;6703;51.994;7.570;2023-02-15T11:56:08;46.23;;;18.27;;
13269;SDS011;6703;51.994;7.570;2023-02-15T11:58:41;42.08;;;17.35;;
13269;SDS011;6703;51.994;7.570;2023-02-15T12:01:13;49.15;;;18.63;;
13269;SDS011;6703;51.994;7.570;2023-02-15T12:03:44;46.05;;;18.60;;
13269;SDS011;6703;51.994;7.570;2023-02-15T12:06:16;47.90;;;17.67;;
13269;SDS011;6703;51.994;7.570;2023-02-15T12:08:49;49.47;;;18.92;;
13269;SDS011;6703;51.994;7.570;2023-02-15T12:11:25;48.38;;;17.42;;
13269;SDS011;6703;51.994;7.570;2023-02-15T12:13:56;46.55;;;17.70;;
13269;SDS011;6703;51.994;7.570;2023-02-15T12:16:27;45.77;;;17.67;;
13269;SDS011;6703;51.994;7.570;2023-02-15T12:18:57;48.20;;;17.27;;
13269;SDS011;6703;51.994;7.570;2023-02-15T12:21:27;44.70;;;17.75;;
13269;SDS011;6703;51.994;7.570;2023-02-15T12:23:58;46.58;;;17.88;;
13269;SDS011;6703;51.994;7.570;2023-02-15T12:26:30;44.70;;;18.07;;
13269;SDS011;6703;51.994;7.570;2023-02-15T12:28:59;42.58;;;17.35;;
13269;SDS011;6703;51.994;7.570;2023-02-15T12:31:32;42.05;;;17.95;;
13269;SDS011;6703;51.994;7.570;2023-02-15T12:34:08;46.33;;;17.92;;
13269;SDS011;6703;51.994;7.570;2023-02-15T12:36:40;51.17;;;17.93;;
13269;SDS011;6703;51.994;7.570;2023-02-15T12:39:19;41.20;;;17.55;;
13269;SDS011;6703;51.994;7.570;2023-02-15T12:41:57;45.25;;;17.35;;
13269;SDS011;6703;51.994;7.570;2023-02-15T12:44:27;44.90;;;16.75;;
13269;SDS011;6703;51.994;7.570;2023-02-15T12:46:58;41.60;;;16.75;;
13269;SDS011;6703;51.994;7.570;2023-02-15T12:49:27;38.72;;;16.55;;
13269;SDS011;6703;51.994;7.570;2023-02-15T12:51:57;41.72;;;17.35;;
13269;SDS011;6703;51.994;7.570;2023-02-15T12:54:33;41.90;;;16.23;;
13269;SDS011;6703;51.994;7.570;2023-02-15T12:57:20;43.17;;;16.60;;
13269;SDS011;6703;51.994;7.570;2023-02-15T12:59:51;43.60;;;16.23;;
13269;SDS011;6703;51.994;7.570;2023-02-15T13:02:23;44.50;;;17.15;;
13269;SDS011;6703;51.994;7.570;2023-02-15T13:04:53;42.55;;;16.45;;
13269;SDS011;6703;51.994;7.570;2023-02-15T13:07:21;39.03;;;16.13;;
13269;SDS011;6703;51.994;7.570;2023-02-15T13:09:49;40.58;;;16.13;;
13269;SDS011;6703;51.994;7.570;2023-02-15T13:12:18;42.03;;;16.50;;
13269;SDS011;6703;51.994;7.570;2023-02-15T13:14:50;40.00;;;16.20;;
13269;SDS011;6703;51.994;7.570;2023-02-15T13:17:20;40.43;;;16.57;;
13269;SDS011;6703;51.994;7.570;2023-02-15T13:19:53;44.90;;;17.65;;
13269;SDS011;6703;51.994;7.570;2023-02-15T13:22:21;38.78;;;16.05;;
13269;SDS011;6703;51.994;7.570;2023-02-15T13:24:51;43.58;;;16.40;;
13269;SDS011;6703;51.994;7.570;2023-02-15T13:27:21;41.33;;;16.10;;
13269;SDS011;6703;51.994;7.570;2023-02-15T13:29:51;47.65;;;16.98;;
13269;SDS011;6703;51.994;7.570;2023-02-15T13:32:27;40.63;;;16.65;;
13269;SDS011;6703;51.994;7.570;2023-02-15T13:34:57;43.33;;;16.80;;
13269;SDS011;6703;51.994;7.570;2023-02-15T13:37:32;40.05;;;15.85;;
13269;SDS011;6703;51.994;7.570;2023-02-15T13:40:10;42.37;;;16.73;;
13269;SDS011;6703;51.994;7.570;2023-02-15T13:42:41;39.17;;;16.15;;
13269;SDS011;6703;51.994;7.570;2023-02-15T13:45:19;36.45;;;15.85;;
13269;SDS011;6703;51.994;7.570;2023-02-15T13:47:56;45.53;;;16.52;;
13269;SDS011;6703;51.994;7.570;2023-02-15T13:50:37;45.33;;;17.00;;
13269;SDS011;6703;51.994;7.570;2023-02-15T13:53:16;42.05;;;15.95;;
13269;SDS011;6703;51.994;7.570;2023-02-15T13:55:50;38.90;;;16.27;;
13269;SDS011;6703;51.994;7.570;2023-02-15T13:58:29;45.47;;;16.52;;
13269;SDS011;6703;51.994;7.570;2023-02-15T14:01:07;39.03;;;15.93;;
13269;SDS011;6703;51.994;7.570;2023-02-15T14:03:43;39.75;;;15.80;;
13269;SDS011;6703;51.994;7.570;2023-02-15T14:06:22;39.72;;;16.13;;
13269;SDS011;6703;51.994;7.570;2023-02-15T14:09:03;39.35;;;15.93;;
13269;SDS011;6703;51.994;7.570;2023-02-15T14:11:40;34.07;;;15.63;;
13269;SDS011;6703;51.994;7.570;2023-02-15T14:14:19;41.40;;;16.23;;
13269;SDS011;6703;51.994;7.570;2023-02-15T14:16:53;36.28;;;16.33;;
13269;SDS011;6703;51.994;7.570;2023-02-15T14:19:35;39.45;;;16.35;;
13269;SDS011;6703;51.994;7.570;2023-02-15T14:22:09;38.20;;;15.80;;
13269;SDS011;6703;51.994;7.570;2023-02-15T14:24:42;37.53;;;15.85;;
13269;SDS011;6703;51.994;7.570;2023-02-15T14:27:17;36.65;;;15.23;;
13269;SDS011;6703;51.994;7.570;2023-02-15T14:29:49;42.45;;;15.95;;
13269;SDS011;6703;51.994;7.570;2023-02-15T14:32:21;32.33;;;14.32;;
13269;SDS011;6703;51.994;7.570;2023-02-15T14:34:56;37.47;;;15.53;;
13269;SDS011;6703;51.994;7.570;2023-02-15T14:37:29;33.13;;;15.30;;
13269;SDS011;6703;51.994;7.570;2023-02-15T14:40:05;32.17;;;15.85;;
13269;SDS011;6703;51.994;7.570;2023-02-15T14:42:53;37.67;;;15.88;;
13269;SDS011;6703;51.994;7.570;2023-02-15T14:45:26;37.17;;;15.63;;
13269;SDS011;6703;51.994;7.570;2023-02-15T14:48:02;33.45;;;14.60;;
13269;SDS011;6703;51.994;7.570;2023-02-15T14:50:39;35.67;;;15.68;;
13269;SDS011;6703;51.994;7.570;2023-02-15T14:53:17;32.83;;;15.07;;
13269;SDS011;6703;51.994;7.570;2023-02-15T14:58:58;36.50;;;15.13;;
13269;SDS011;6703;51.994;7.570;2023-02-15T15:01:27;35.42;;;15.05;;
13269;SDS011;6703;51.994;7.570;2023-02-15T15:03:57;35.38;;;14.93;;
13269;SDS011;6703;51.994;7.570;2023-02-15T15:06:29;35.95;;;15.95;;